Flight Track Log - Related Links

Times and Time Zones

All times are in EDT time to prevent confusion due to time zone crossing. See the EGF3681 flight status page for this flight to view local times or setup timezone preferences in your user account.

Time Position Orientation Groundspeed Altitude Reporting Facility
EDT Latitude Longitude Course Direction KTS km/h feet Rate Location/Type
Fri 23:37:43 41.9833 -87.9833 90° East 203 377 3,200  Level Chicago TRACON
Fri 23:38:49 41.9333 -88.0167 206° Southwest 257 476 5,600 2,400 Climbing Chicago TRACON
Fri 23:39:00 41.9667 -87.5348 90° East  Level FlightAware Approximate
Fri 23:39:38 41.9333 -87.9500 90° East 274 507 7,800  Level Chicago TRACON
Fri 23:40:00 41.9548 -87.4141 98° East  Level FlightAware Approximate
Fri 23:41:00 41.9448 -87.2932 95° East  Level FlightAware Approximate
Fri 23:41:18 41.9392 -87.7800 87° East 282 523 10,900  Level Chicago Center
Fri 23:42:00 41.9361 -87.1721 95° East  Level FlightAware Approximate
Fri 23:42:18 41.9389 -87.6531 90° East 326 604 12,100  Level Chicago Center
Fri 23:43:00 41.9333 -87.0491 90° East  Level FlightAware Approximate
Fri 23:43:19 41.9319 -87.5167 94° East 360 666 13,100  Level Chicago Center
Fri 23:44:19 41.9047 -87.3789 105° East 380 703 14,200 1,140 Climbing Chicago Center
Fri 23:45:20 41.8217 -87.2458 130° Southeast 384 711 15,400 1,140 Climbing Chicago Center
Fri 23:46:20 41.7525 -87.1325 129° Southeast 390 723 16,500 1,091 Climbing Chicago Center
Fri 23:47:21 41.6833 -87.0181 129° Southeast 394 729 17,600 942 Climbing Chicago Center
Fri 23:48:21 41.6125 -86.9033 130° Southeast 397 735 18,400 942 Climbing Chicago Center
Fri 23:49:22 41.5436 -86.7878 129° Southeast 399 739 19,500 992 Climbing Chicago Center
Fri 23:50:22 41.4836 -86.6906 129° Southeast 403 747 20,400 1,050 Climbing Chicago Center
Fri 23:51:22 41.3961 -86.5486 129° Southeast 411 761 21,600 1,051 Climbing Chicago Center
Fri 23:53:19 41.2606 -86.3300 129° Southeast 420 777 23,500 978 Climbing Indianapolis Center
Fri 23:54:20 41.1864 -86.2106 130° Southeast 420 777 24,500 744 Climbing Indianapolis Center
Fri 23:55:20 41.1117 -86.0928 130° Southeast 418 774 25,000 -50 Climbing Indianapolis Center
Fri 23:56:21 41.0339 -85.9700 130° Southeast 434 803 24,400 -843 Descending Indianapolis Center
Fri 23:57:21 40.9556 -85.8433 129° Southeast 443 821 23,300 -1,041 Descending Indianapolis Center
Fri 23:58:22 40.8761 -85.7189 130° Southeast 443 821 22,300 -992 Descending Indianapolis Center
Fri 23:59:22 40.7989 -85.5972 130° Southeast 434 803 21,300 -992 Descending Indianapolis Center
Sat 00:00:23 40.7239 -85.4797 130° Southeast 423 784 20,300 -1,091 Descending Indianapolis Center
Sat 00:01:23 40.6503 -85.3656 130° Southeast 412 763 19,100 -1,438 Descending Indianapolis Center
Sat 00:02:24 40.5608 -85.2258 130° Southeast 415 769 17,400 -1,440 Descending Indianapolis Center
Sat 00:03:03 40.5153 -85.1564 131° Southeast 404 748 16,700 -1,017 Descending Indianapolis Center
Sat 00:04:22 40.4242 -85.0119 130° Southeast 390 723 15,400 -1,122 Descending Indianapolis Center
Sat 00:05:22 40.3536 -84.9075 132° Southeast 387 716 14,100 -1,636 Descending Indianapolis Center
Sat 00:06:23 40.2908 -84.8103 130° Southeast 348 644 12,100 -1,869 Descending Indianapolis Center
Sat 00:07:24 40.2294 -84.7164 131° Southeast 303 562 10,300 -1,884 Descending Indianapolis Center
Sat 00:08:24 40.2114 -84.6142 103° East 291 539 8,300 -1,488 Descending Indianapolis Center
Sat 00:09:25 40.2092 -84.5175 92° East 264 489 7,300 -1,091 Descending Indianapolis Center
Sat 00:10:25 40.2081 -84.4294 91° East 232 430 6,100 -694 Descending Indianapolis Center
Sat 00:11:26 40.1983 -84.3453 99° East 236 438 5,900 -295 Descending Indianapolis Center
Sat 00:12:27 40.1494 -84.2897 139° Southeast 231 428 5,500 -545 Descending Indianapolis Center
Sat 00:13:27 40.0975 -84.2447 146° Southeast 225 417 4,800 -942 Descending Indianapolis Center
Sat 00:14:28 40.0389 -84.2206 162° South 214 396 3,600 -1,180 Descending Indianapolis Center

Login

Don't have an account? Register now (free) for customized features, flight alerts, and more!